Time;durP1;ratioP1;P1;durP2;ratioP2;P2;SDS_P1;SDS_P2;PMS_P1;PMS_P2;Temp;Humidity;BMP_temperature;BMP_pressure;BME280_temperature;BME280_humidity;BME280_pressure;Samples;Min_cycle;Max_cycle;Signal;HPM_P1;HPM_P2
2022/05/13 00:01:53;;;;;;;6.70;2.07;;;13.50;99.90;;;;;;5043241;28;20224;-91
2022/05/13 00:04:20;;;;;;;13.67;2.40;;;13.50;99.90;;;;;;5043618;28;20304;-91
2022/05/13 00:06:46;;;;;;;7.10;2.40;;;13.50;99.90;;;;;;5044641;28;20251;-91
2022/05/13 00:09:13;;;;;;;4.50;2.50;;;13.40;99.90;;;;;;5042491;28;20231;-91
2022/05/13 00:11:41;;;;;;;6.50;2.10;;;13.40;99.90;;;;;;5044361;28;20232;-90
2022/05/13 00:14:08;;;;;;;9.43;3.00;;;13.40;99.90;;;;;;5047656;28;20275;-91
2022/05/13 00:16:35;;;;;;;10.80;3.43;;;13.40;99.90;;;;;;5047217;28;20225;-90
2022/05/13 00:19:06;;;;;;;5.70;2.37;;;13.40;99.90;;;;;;5046497;28;20239;-90
2022/05/13 00:21:32;;;;;;;5.80;2.10;;;13.40;99.90;;;;;;5048465;28;20194;-90
2022/05/13 00:23:58;;;;;;;3.13;1.63;;;13.40;99.90;;;;;;5047493;28;20225;-90
2022/05/13 00:26:24;;;;;;;13.40;2.93;;;13.40;99.90;;;;;;5046028;28;20222;-91
2022/05/13 00:28:50;;;;;;;13.20;2.93;;;13.40;99.90;;;;;;5047472;28;20225;-91
2022/05/13 00:31:15;;;;;;;6.53;2.33;;;13.40;99.90;;;;;;5030714;28;20280;-91
2022/05/13 00:33:41;;;;;;;9.67;3.13;;;13.50;99.90;;;;;;5046841;28;20509;-91
2022/05/13 00:36:07;;;;;;;8.70;2.87;;;13.40;99.90;;;;;;5030134;28;20214;-91
2022/05/13 00:38:33;;;;;;;5.10;2.33;;;13.40;99.90;;;;;;5048290;28;20328;-91
2022/05/13 00:40:59;;;;;;;9.80;2.07;;;13.40;99.90;;;;;;5031320;28;20233;-91
2022/05/13 00:43:51;;;;;;;8.47;2.13;;;13.50;99.90;;;;;;5048087;28;20222;-90
2022/05/13 00:46:18;;;;;;;9.50;2.53;;;13.40;99.90;;;;;;5047661;28;20218;-89
2022/05/13 00:48:46;;;;;;;6.20;2.53;;;13.50;99.90;;;;;;5048332;28;20224;-90
2022/05/13 00:51:18;;;;;;;11.43;2.43;;;13.50;99.90;;;;;;5048554;28;20309;-91
2022/05/13 00:53:46;;;;;;;4.87;2.50;;;13.50;99.90;;;;;;5047665;28;20311;-91
2022/05/13 00:56:13;;;;;;;6.77;2.33;;;13.50;99.90;;;;;;5047712;28;20246;-91
2022/05/13 00:58:43;;;;;;;9.97;2.70;;;13.50;99.90;;;;;;5031494;28;20619;-90
2022/05/13 01:01:09;;;;;;;4.93;2.13;;;13.50;99.90;;;;;;5047041;28;20707;-90
2022/05/13 01:03:36;;;;;;;11.20;2.87;;;13.40;99.90;;;;;;5047834;28;20190;-90
2022/05/13 01:06:12;;;;;;;3.40;2.20;;;13.40;99.90;;;;;;5030826;28;20213;-91
2022/05/13 01:08:39;;;;;;;6.63;2.17;;;13.40;99.90;;;;;;5047235;28;20212;-91
2022/05/13 01:11:14;;;;;;;8.33;2.43;;;13.40;99.90;;;;;;5045639;28;20217;-91
2022/05/13 01:13:44;;;;;;;3.07;1.83;;;13.40;99.90;;;;;;5046781;28;20225;-91
2022/05/13 01:16:09;;;;;;;10.00;2.73;;;13.40;99.90;;;;;;5045095;28;20700;-88
2022/05/13 01:18:37;;;;;;;9.20;2.93;;;13.40;99.90;;;;;;5048881;28;20202;-91
2022/05/13 01:21:06;;;;;;;5.43;1.90;;;13.30;99.90;;;;;;5062741;28;20282;-91
2022/05/13 01:23:41;;;;;;;9.67;3.10;;;13.30;99.90;;;;;;5046078;28;20316;-90
2022/05/13 01:26:13;;;;;;;2.30;2.10;;;13.30;99.90;;;;;;5048080;28;20218;-91
2022/05/13 01:28:54;;;;;;;13.07;1.73;;;13.30;99.90;;;;;;5048766;28;20214;-90
2022/05/13 01:31:27;;;;;;;7.57;3.17;;;13.30;99.90;;;;;;5063130;28;20221;-90
2022/05/13 01:33:53;;;;;;;7.47;2.47;;;13.30;99.90;;;;;;5047488;28;20324;-93
2022/05/13 01:36:19;;;;;;;15.97;3.53;;;13.30;99.90;;;;;;5046297;28;20210;-90
2022/05/13 01:38:45;;;;;;;8.33;3.13;;;13.30;99.90;;;;;;5047142;28;20238;-91
2022/05/13 01:41:12;;;;;;;6.97;3.33;;;13.30;99.90;;;;;;5046416;28;20293;-91
2022/05/13 01:43:40;;;;;;;6.77;2.30;;;13.30;99.90;;;;;;5046056;28;20863;-90
2022/05/13 01:46:06;;;;;;;11.07;3.30;;;13.30;99.90;;;;;;5046496;28;20179;-92
2022/05/13 01:48:33;;;;;;;10.30;2.40;;;13.30;99.90;;;;;;5047974;28;20245;-91
2022/05/13 01:51:00;;;;;;;9.37;3.77;;;13.30;99.90;;;;;;5045743;28;20229;-91
2022/05/13 01:53:26;;;;;;;3.73;1.97;;;13.30;99.90;;;;;;5046349;28;20254;-91
2022/05/13 01:55:52;;;;;;;4.53;2.80;;;13.30;99.90;;;;;;5046465;28;20224;-91
2022/05/13 01:58:20;;;;;;;5.63;1.97;;;13.30;99.90;;;;;;5028273;28;20241;-92
2022/05/13 02:00:47;;;;;;;8.83;2.43;;;13.30;99.90;;;;;;5047443;28;20205;-92
2022/05/13 02:05:58;;;;;;;17.67;4.27;;;13.30;99.90;;;;;;5046113;28;20547;-91
2022/05/13 02:08:23;;;;;;;7.93;2.83;;;13.20;99.90;;;;;;5046029;28;20252;-91
2022/05/13 02:10:49;;;;;;;5.40;2.13;;;13.30;99.90;;;;;;5046139;28;20221;-91
2022/05/13 02:13:15;;;;;;;10.30;3.17;;;13.20;99.90;;;;;;5062702;28;20332;-92
2022/05/13 02:15:42;;;;;;;11.77;2.53;;;13.20;99.90;;;;;;5030531;28;20193;-91
2022/05/13 02:18:08;;;;;;;3.73;1.87;;;13.20;99.90;;;;;;5046033;28;20214;-92
2022/05/13 02:20:35;;;;;;;7.07;1.90;;;13.20;99.90;;;;;;5030229;28;20222;-91
2022/05/13 02:23:01;;;;;;;5.40;2.57;;;13.20;99.90;;;;;;5045673;28;20308;-90
2022/05/13 02:25:29;;;;;;;6.37;1.90;;;13.20;99.90;;;;;;5046300;28;20209;-91
2022/05/13 02:27:56;;;;;;;9.53;2.73;;;13.20;99.90;;;;;;5046898;28;20315;-87
2022/05/13 02:30:22;;;;;;;17.13;2.50;;;13.20;99.90;;;;;;5029853;28;20194;-90
2022/05/13 02:32:48;;;;;;;10.73;3.93;;;13.10;99.90;;;;;;5011998;28;20249;-90
2022/05/13 02:35:14;;;;;;;14.87;4.43;;;13.10;99.90;;;;;;5044349;28;20339;-91
2022/05/13 02:37:39;;;;;;;10.33;2.47;;;13.20;99.90;;;;;;5045672;28;20212;-90
2022/05/13 02:40:06;;;;;;;8.23;3.23;;;13.20;99.90;;;;;;5046353;28;20252;-90
2022/05/13 02:42:32;;;;;;;7.97;2.30;;;13.20;99.90;;;;;;5012503;28;20197;-90
2022/05/13 02:44:57;;;;;;;7.23;2.77;;;13.20;99.90;;;;;;5045773;28;20218;-91
2022/05/13 02:47:23;;;;;;;11.30;2.70;;;13.20;99.90;;;;;;5028713;28;20218;-90
2022/05/13 02:50:17;;;;;;;9.87;2.60;;;13.20;99.90;;;;;;5029298;28;20222;-89
2022/05/13 02:52:34;;;;;;;2.30;1.80;;;13.20;99.90;;;;;;5044478;28;20253;-90
2022/05/13 02:55:00;;;;;;;5.73;2.80;;;13.20;99.90;;;;;;5046572;28;20201;-90
2022/05/13 02:57:26;;;;;;;12.93;3.53;;;13.30;99.90;;;;;;5047502;28;20575;-90
2022/05/13 02:59:51;;;;;;;5.77;3.17;;;13.30;99.90;;;;;;5045656;28;20222;-90
2022/05/13 03:02:17;;;;;;;6.30;2.73;;;13.30;99.90;;;;;;5012648;28;20210;-89
2022/05/13 03:04:43;;;;;;;17.87;2.30;;;13.30;99.90;;;;;;5029441;28;21000;-91
2022/05/13 03:07:09;;;;;;;7.83;2.13;;;13.30;99.90;;;;;;5027336;28;20182;-91
2022/05/13 03:09:34;;;;;;;6.00;1.77;;;13.40;99.90;;;;;;5026424;28;21130;-89
2022/05/13 03:12:00;;;;;;;6.13;1.77;;;13.40;99.90;;;;;;5026125;28;20699;-91
2022/05/13 03:14:26;;;;;;;5.67;2.63;;;13.40;99.90;;;;;;5043813;28;20218;-90
2022/05/13 03:16:52;;;;;;;8.17;2.83;;;13.50;99.90;;;;;;5027896;28;20221;-90
2022/05/13 03:19:17;;;;;;;4.97;2.10;;;13.40;99.90;;;;;;5044898;28;20577;-90
2022/05/13 03:21:43;;;;;;;1.63;1.53;;;13.40;99.90;;;;;;5028751;28;20216;-89
2022/05/13 03:24:09;;;;;;;3.27;2.10;;;13.40;99.90;;;;;;5044190;28;20221;-90
2022/05/13 03:26:34;;;;;;;3.50;2.23;;;13.40;99.90;;;;;;5028895;28;20273;-89
2022/05/13 03:29:00;;;;;;;6.07;1.97;;;13.40;99.90;;;;;;5012641;28;20280;-90
2022/05/13 03:31:26;;;;;;;9.17;1.97;;;13.40;99.90;;;;;;5045040;28;20297;-88
2022/05/13 03:33:52;;;;;;;3.77;2.07;;;13.30;99.90;;;;;;5029581;28;20225;-90
2022/05/13 03:36:19;;;;;;;3.37;1.87;;;13.40;99.90;;;;;;5028488;28;20267;-90
2022/05/13 03:38:45;;;;;;;5.70;1.57;;;13.30;99.90;;;;;;5044914;28;20224;-90
2022/05/13 03:41:11;;;;;;;2.67;1.53;;;13.30;99.90;;;;;;5028864;28;20213;-91
2022/05/13 03:43:37;;;;;;;1.80;1.60;;;13.30;99.90;;;;;;5044394;28;20210;-89
2022/05/13 03:46:03;;;;;;;6.20;2.07;;;13.30;99.90;;;;;;5028367;28;20200;-91
2022/05/13 03:48:29;;;;;;;2.63;0.80;;;13.30;99.90;;;;;;5029489;28;20193;-93
2022/05/13 03:50:54;;;;;;;0.50;0.50;;;13.30;99.90;;;;;;5028931;28;20254;-90
2022/05/13 03:53:20;;;;;;;1.33;0.60;;;13.30;99.90;;;;;;5028212;28;21082;-91
2022/05/13 03:55:46;;;;;;;0.30;0.30;;;13.30;99.90;;;;;;5045207;28;21045;-89
2022/05/13 03:58:12;;;;;;;4.43;1.53;;;13.30;99.90;;;;;;5028347;28;20276;-90
2022/05/13 04:00:38;;;;;;;0.93;0.87;;;13.30;99.90;;;;;;5046190;28;20224;-90
2022/05/13 04:03:04;;;;;;;3.60;1.43;;;13.30;99.90;;;;;;5044923;28;20229;-87
2022/05/13 04:10:59;;;;;;;1.60;1.13;;;13.30;99.90;;;;;;5042913;28;20202;-89
2022/05/13 04:16:09;;;;;;;4.93;1.27;;;13.30;99.90;;;;;;5044470;28;20615;-87
2022/05/13 04:18:38;;;;;;;2.17;1.60;;;13.30;99.90;;;;;;5028807;28;20643;-90
2022/05/13 04:21:10;;;;;;;2.50;1.57;;;13.30;99.90;;;;;;5044432;28;20304;-90
2022/05/13 04:23:39;;;;;;;2.03;1.27;;;13.30;99.90;;;;;;5044548;28;20218;-89
2022/05/13 04:26:05;;;;;;;4.67;1.20;;;13.30;99.90;;;;;;5044356;28;20301;-89
2022/05/13 04:28:31;;;;;;;3.23;0.80;;;13.30;99.90;;;;;;5027785;28;20222;-89
2022/05/13 04:30:58;;;;;;;5.23;1.80;;;13.30;99.90;;;;;;5045595;28;20192;-88
2022/05/13 04:33:25;;;;;;;9.23;1.83;;;13.30;99.90;;;;;;5028096;28;20697;-87
2022/05/13 04:35:50;;;;;;;2.00;1.00;;;13.30;99.90;;;;;;5051437;28;20317;-89
2022/05/13 04:38:16;;;;;;;1.27;0.90;;;13.30;99.90;;;;;;5043961;28;20743;-88
2022/05/13 04:40:42;;;;;;;2.63;1.10;;;13.30;99.90;;;;;;5043550;28;20217;-90
2022/05/13 04:43:08;;;;;;;1.40;1.30;;;13.40;99.90;;;;;;5027801;28;20192;-89
2022/05/13 04:45:34;;;;;;;6.10;1.37;;;13.40;99.90;;;;;;5012439;28;20190;-88
2022/05/13 04:48:16;;;;;;;3.23;1.20;;;13.40;99.90;;;;;;5061078;28;20275;-90
2022/05/13 04:51:00;;;;;;;2.53;1.43;;;13.40;99.90;;;;;;5060732;28;20686;-90
2022/05/13 04:53:32;;;;;;;1.80;0.60;;;13.40;99.90;;;;;;5039978;28;20751;-90
2022/05/13 04:55:59;;;;;;;1.80;0.60;;;13.40;99.90;;;;;;5044652;28;21047;-91
2022/05/13 04:58:25;;;;;;;3.23;0.80;;;13.40;99.90;;;;;;5046785;28;20317;-90
2022/05/13 05:00:54;;;;;;;0.70;0.70;;;13.40;99.90;;;;;;5024501;28;20226;-91
2022/05/13 05:03:21;;;;;;;0.93;0.83;;;13.40;99.90;;;;;;5045327;28;20218;-91
2022/05/13 05:05:47;;;;;;;3.00;1.17;;;13.40;99.90;;;;;;5047063;28;20217;-92
2022/05/13 05:08:14;;;;;;;2.40;1.10;;;13.40;99.90;;;;;;5047872;28;20206;-89
2022/05/13 05:10:42;;;;;;;1.90;1.00;;;13.50;99.90;;;;;;5039240;28;20240;-90
2022/05/13 05:13:08;;;;;;;6.70;0.80;;;13.40;99.90;;;;;;5048328;28;20228;-90
2022/05/13 05:15:35;;;;;;;3.90;1.17;;;13.40;99.90;;;;;;5031120;28;20178;-90
2022/05/13 05:18:02;;;;;;;0.83;0.83;;;13.40;99.90;;;;;;5047651;28;20213;-89
2022/05/13 05:20:28;;;;;;;0.57;0.50;;;13.50;99.90;;;;;;5047053;28;20222;-90
2022/05/13 05:22:53;;;;;;;0.60;0.60;;;13.50;99.90;;;;;;5048250;28;20718;-90
2022/05/13 05:25:21;;;;;;;2.03;1.93;;;13.50;99.90;;;;;;5046452;28;20213;-88
2022/05/13 05:27:48;;;;;;;0.87;0.67;;;13.50;99.90;;;;;;5046644;28;20687;-87
2022/05/13 05:30:15;;;;;;;2.13;1.20;;;13.50;99.90;;;;;;5046847;28;20257;-88
2022/05/13 05:32:41;;;;;;;6.73;1.20;;;13.50;99.90;;;;;;5047559;28;20228;-84
2022/05/13 05:35:14;;;;;;;1.80;1.70;;;13.50;99.90;;;;;;5047408;28;20226;-86
2022/05/13 05:37:40;;;;;;;0.63;0.63;;;13.50;99.90;;;;;;5043858;28;20297;-86
2022/05/13 05:40:06;;;;;;;3.30;0.87;;;13.40;99.90;;;;;;5045932;28;20309;-87
2022/05/13 05:42:32;;;;;;;4.33;1.67;;;13.50;99.90;;;;;;5046748;28;20190;-86
2022/05/13 05:44:57;;;;;;;3.57;1.57;;;13.50;99.90;;;;;;5044199;28;20202;-88
2022/05/13 05:47:24;;;;;;;2.63;1.20;;;13.60;99.90;;;;;;5044790;28;20662;-87
2022/05/13 05:49:51;;;;;;;0.93;0.80;;;13.50;99.90;;;;;;5045224;28;20263;-86
2022/05/13 05:52:17;;;;;;;1.87;1.07;;;13.50;99.90;;;;;;5045743;28;20258;-88
2022/05/13 05:57:27;;;;;;;0.97;0.73;;;13.60;99.90;;;;;;5033185;28;20237;-88
2022/05/13 05:59:54;;;;;;;2.43;0.87;;;13.60;99.90;;;;;;5025380;28;20233;-87
2022/05/13 06:02:19;;;;;;;3.77;1.50;;;13.60;99.90;;;;;;5045749;28;20228;-85
2022/05/13 06:04:45;;;;;;;3.60;1.13;;;13.60;99.90;;;;;;5045548;28;20213;-87
2022/05/13 06:07:15;;;;;;;0.63;0.63;;;13.60;99.90;;;;;;5047564;28;20194;-87
2022/05/13 06:09:43;;;;;;;0.83;0.63;;;13.70;99.90;;;;;;5045638;28;20195;-86
2022/05/13 06:12:10;;;;;;;3.40;2.33;;;13.60;99.90;;;;;;5045019;28;20218;-88
2022/05/13 06:14:37;;;;;;;0.63;0.63;;;13.70;99.90;;;;;;5045169;28;20323;-89
2022/05/13 06:17:04;;;;;;;5.73;0.90;;;13.60;99.90;;;;;;5027772;28;20222;-85
2022/05/13 06:19:29;;;;;;;0.90;0.80;;;13.60;99.90;;;;;;5043924;28;20790;-86
2022/05/13 06:21:55;;;;;;;1.90;1.33;;;13.60;99.90;;;;;;5029224;28;20198;-87
2022/05/13 06:24:21;;;;;;;1.53;0.97;;;13.70;99.90;;;;;;5045366;28;20217;-87
2022/05/13 06:26:49;;;;;;;1.50;1.40;;;14.00;99.90;;;;;;5039183;28;20213;-86
2022/05/13 06:29:23;;;;;;;1.90;1.30;;;14.40;99.90;;;;;;5045423;28;20303;-87
2022/05/13 06:31:49;;;;;;;4.70;1.87;;;14.70;99.90;;;;;;5045171;28;20288;-86
2022/05/13 06:34:16;;;;;;;0.30;0.30;;;14.90;99.90;;;;;;5045742;28;20194;-87
2022/05/13 06:36:42;;;;;;;0.40;0.40;;;14.80;99.90;;;;;;5046385;28;20186;-88
2022/05/13 06:39:10;;;;;;;3.73;1.30;;;14.60;99.90;;;;;;5044377;28;20221;-88
2022/05/13 06:41:37;;;;;;;1.17;0.50;;;14.70;99.90;;;;;;5011595;28;21040;-88
2022/05/13 06:44:07;;;;;;;0.60;0.60;;;14.50;99.90;;;;;;5011600;28;20929;-86
2022/05/13 06:46:35;;;;;;;2.20;0.80;;;14.60;99.90;;;;;;5042938;28;20218;-84
2022/05/13 06:49:04;;;;;;;2.00;0.73;;;14.70;99.90;;;;;;5042780;28;20190;-84
2022/05/13 06:51:31;;;;;;;2.33;1.03;;;14.50;99.90;;;;;;5044925;28;20535;-86
2022/05/13 06:54:03;;;;;;;1.13;0.50;;;14.50;99.90;;;;;;5045943;28;20233;-89
2022/05/13 06:56:31;;;;;;;3.47;0.77;;;15.00;99.90;;;;;;5045426;28;20249;-87
2022/05/13 06:58:57;;;;;;;1.50;1.33;;;15.60;99.90;;;;;;5045263;28;20248;-87
2022/05/13 07:01:23;;;;;;;0.97;0.97;;;16.50;99.90;;;;;;5036574;28;20221;-88
2022/05/13 07:03:49;;;;;;;2.07;0.70;;;16.40;99.90;;;;;;5028523;28;20203;-87
2022/05/13 07:06:15;;;;;;;3.30;1.47;;;16.90;99.90;;;;;;5044047;28;20236;-85
2022/05/13 07:08:41;;;;;;;1.13;0.70;;;17.10;99.90;;;;;;5043405;28;20226;-87
2022/05/13 07:11:07;;;;;;;7.03;1.00;;;17.40;99.90;;;;;;5043873;28;20210;-87
2022/05/13 07:13:34;;;;;;;1.63;0.80;;;17.40;99.90;;;;;;5043102;28;20222;-89
2022/05/13 07:16:00;;;;;;;0.63;0.53;;;18.20;99.90;;;;;;5026439;28;20186;-86
2022/05/13 07:18:26;;;;;;;1.90;1.33;;;18.30;99.90;;;;;;5044081;28;20186;-85
2022/05/13 07:20:52;;;;;;;3.00;0.90;;;18.20;99.90;;;;;;5026235;28;20218;-86
2022/05/13 07:23:18;;;;;;;1.30;0.83;;;18.30;99.90;;;;;;5059155;28;20245;-87
2022/05/13 07:25:44;;;;;;;7.60;1.50;;;19.30;99.90;;;;;;5041379;28;20305;-89
2022/05/13 07:28:10;;;;;;;4.77;1.27;;;19.10;99.90;;;;;;5025501;28;21015;-88
2022/05/13 07:30:36;;;;;;;7.77;1.30;;;18.60;99.90;;;;;;5027201;28;20182;-89
2022/05/13 07:33:02;;;;;;;3.33;0.80;;;18.10;99.90;;;;;;5043656;28;20860;-86
2022/05/13 07:35:28;;;;;;;2.60;1.13;;;17.30;99.90;;;;;;5028261;28;20318;-90
2022/05/13 07:37:53;;;;;;;2.90;0.80;;;16.60;99.90;;;;;;5045660;28;20292;-90
2022/05/13 07:43:03;;;;;;;3.53;1.30;;;16.90;99.90;;;;;;5045839;28;20284;-91
2022/05/13 07:45:30;;;;;;;4.50;0.97;;;17.90;99.90;;;;;;5028416;28;20920;-92
2022/05/13 07:48:01;;;;;;;5.17;1.83;;;19.10;99.90;;;;;;5045262;28;20218;-91
2022/05/13 07:50:52;;;;;;;1.77;1.67;;;19.10;99.90;;;;;;5034973;28;20218;-93
2022/05/13 07:53:26;;;;;;;3.83;1.30;;;18.60;99.90;;;;;;5028821;28;20237;-92
2022/05/13 07:55:53;;;;;;;5.83;1.27;;;18.10;99.90;;;;;;5045217;28;20221;-92
2022/05/13 07:58:19;;;;;;;2.67;1.13;;;17.60;99.90;;;;;;5045051;28;20249;-93
2022/05/13 08:00:48;;;;;;;0.80;0.80;;;17.70;99.90;;;;;;5029328;28;20264;-91
2022/05/13 08:03:18;;;;;;;3.93;1.30;;;18.10;99.90;;;;;;5028305;28;20233;-89
2022/05/13 08:06:00;;;;;;;2.03;1.10;;;19.00;99.90;;;;;;5028358;28;20209;-90
2022/05/13 08:08:39;;;;;;;1.03;1.03;;;19.20;99.90;;;;;;5044940;28;20213;-92
2022/05/13 08:11:08;;;;;;;1.90;1.10;;;20.00;99.90;;;;;;5044304;28;20210;-93
2022/05/13 08:13:41;;;;;;;3.43;1.67;;;19.50;99.90;;;;;;5044142;28;20708;-91
2022/05/13 08:16:20;;;;;;;2.57;1.17;;;18.70;99.90;;;;;;5044375;28;20185;-90
2022/05/13 08:18:49;;;;;;;2.20;1.10;;;19.10;99.90;;;;;;5044658;28;20178;-92
2022/05/13 08:21:15;;;;;;;2.93;1.13;;;19.90;99.90;;;;;;5027639;28;20423;-88
2022/05/13 08:23:44;;;;;;;4.13;1.17;;;20.40;99.90;;;;;;5043647;28;20949;-88
2022/05/13 08:26:11;;;;;;;2.83;1.30;;;19.70;99.90;;;;;;5027475;28;20214;-89
2022/05/13 08:28:38;;;;;;;3.47;1.60;;;19.40;99.90;;;;;;5027470;28;20225;-94
2022/05/13 08:31:05;;;;;;;3.80;1.10;;;20.20;99.90;;;;;;5044100;28;20776;-92
2022/05/13 08:33:34;;;;;;;5.23;1.50;;;20.20;99.90;;;;;;5049186;28;21073;-91
2022/05/13 08:36:03;;;;;;;5.43;1.37;;;20.30;99.90;;;;;;5048517;28;20267;-91
2022/05/13 08:38:37;;;;;;;4.27;1.30;;;20.90;99.90;;;;;;5049410;28;20616;-92
2022/05/13 08:41:05;;;;;;;4.07;1.10;;;21.20;99.90;;;;;;5047905;28;20213;-94
2022/05/13 08:43:36;;;;;;;6.63;1.67;;;20.10;99.90;;;;;;5047666;28;20226;-90
2022/05/13 08:46:04;;;;;;;1.43;0.90;;;20.30;99.90;;;;;;5048543;28;20265;-92
2022/05/13 08:48:59;;;;;;;2.93;1.70;;;20.30;99.90;;;;;;5049432;28;20230;-90
2022/05/13 08:51:49;;;;;;;1.73;1.60;;;19.20;99.90;;;;;;5064950;28;20217;-91
2022/05/13 08:54:17;;;;;;;3.70;1.57;;;18.90;99.90;;;;;;5047942;28;20238;-89
2022/05/13 08:56:47;;;;;;;3.13;1.10;;;18.10;99.90;;;;;;5063667;28;20217;-85
2022/05/13 08:59:42;;;;;;;7.27;1.50;;;18.50;99.90;;;;;;5048613;28;20233;-89
2022/05/13 09:02:20;;;;;;;1.27;0.73;;;17.90;99.90;;;;;;5050006;28;21056;-92
2022/05/13 09:04:51;;;;;;;0.93;0.93;;;17.90;99.90;;;;;;5048123;28;20214;-91
2022/05/13 09:07:20;;;;;;;4.60;0.90;;;17.80;99.90;;;;;;5064335;28;20220;-94
2022/05/13 09:09:52;;;;;;;7.77;1.67;;;17.70;99.90;;;;;;5048900;28;20190;-90
2022/05/13 09:12:33;;;;;;;8.67;2.60;;;17.30;99.90;;;;;;5048120;28;20256;-88
2022/05/13 09:15:04;;;;;;;3.40;1.43;;;17.20;99.90;;;;;;5048277;28;20321;-88
2022/05/13 09:17:39;;;;;;;0.80;0.80;;;17.90;99.90;;;;;;5046192;28;20264;-89
2022/05/13 09:20:06;;;;;;;1.00;0.90;;;17.90;99.90;;;;;;5048278;28;20252;-90
2022/05/13 09:22:54;;;;;;;5.27;1.70;;;17.00;99.90;;;;;;5046430;28;20283;-92
2022/05/13 09:25:19;;;;;;;5.73;1.40;;;17.70;99.90;;;;;;5047701;28;20222;-90
2022/05/13 09:27:51;;;;;;;2.33;1.10;;;18.70;99.90;;;;;;5048151;28;20182;-89
2022/05/13 09:30:23;;;;;;;4.93;1.00;;;18.50;99.90;;;;;;5048617;28;20209;-91
2022/05/13 09:32:49;;;;;;;5.17;2.87;;;18.50;99.90;;;;;;5047708;28;20233;-93
2022/05/13 09:35:41;;;;;;;1.87;1.63;;;18.40;99.90;;;;;;5047685;28;20329;-92
2022/05/13 09:38:20;;;;;;;4.43;0.90;;;18.00;99.90;;;;;;5047717;28;20214;-92
2022/05/13 09:40:57;;;;;;;10.67;1.70;;;18.20;99.90;;;;;;5048920;28;20220;-91
2022/05/13 09:43:36;;;;;;;5.10;1.33;;;18.60;99.90;;;;;;5046800;28;20245;-91
2022/05/13 09:46:21;;;;;;;2.60;0.97;;;19.00;99.90;;;;;;5063540;28;20425;-91
2022/05/13 09:49:00;;;;;;;2.90;1.13;;;18.60;99.90;;;;;;5048513;28;20182;-92
2022/05/13 09:51:55;;;;;;;1.07;0.97;;;18.70;99.90;;;;;;5045326;28;20237;-90
2022/05/13 09:54:33;;;;;;;2.87;1.67;;;18.30;99.90;;;;;;5045102;28;20260;-91
2022/05/13 09:57:14;;;;;;;2.57;1.40;;;18.80;99.90;;;;;;5043987;28;20217;-90
2022/05/13 09:59:46;;;;;;;3.77;1.20;;;18.90;99.90;;;;;;5045322;28;20238;-90
2022/05/13 10:02:32;;;;;;;4.17;1.47;;;18.60;99.90;;;;;;5044160;28;20217;-94
2022/05/13 10:05:15;;;;;;;6.00;1.80;;;19.00;99.90;;;;;;5049218;28;20229;-93
2022/05/13 10:07:49;;;;;;;2.00;1.17;;;19.10;99.90;;;;;;5049407;28;20206;-93
2022/05/13 10:16:14;;;;;;;3.30;1.43;;;18.50;99.90;;;;;;5049108;28;20889;-93
2022/05/13 10:18:57;;;;;;;2.63;0.70;;;18.30;99.90;;;;;;5050687;28;20241;-93
2022/05/13 10:21:29;;;;;;;3.60;0.83;;;17.90;99.90;;;;;;5049141;28;20210;-94
2022/05/13 10:24:04;;;;;;;1.13;0.93;;;18.60;99.90;;;;;;5049528;28;20225;-94
2022/05/13 10:26:35;;;;;;;3.37;1.57;;;18.20;99.90;;;;;;5065289;28;20372;-95
2022/05/13 10:29:14;;;;;;;9.83;1.40;;;18.60;99.90;;;;;;5040108;28;20214;-94
2022/05/13 10:31:46;;;;;;;1.83;1.13;;;18.00;99.90;;;;;;5049105;28;20210;-91
2022/05/13 10:34:38;;;;;;;2.57;1.57;;;17.90;99.90;;;;;;5024800;28;20197;-93
2022/05/13 10:37:21;;;;;;;3.60;1.67;;;17.30;99.90;;;;;;5059744;28;21067;-93
2022/05/13 10:40:10;;;;;;;5.53;1.47;;;17.60;99.90;;;;;;5048638;28;20181;-86
2022/05/13 10:43:11;;;;;;;2.43;1.33;;;18.30;99.90;;;;;;5045977;28;20220;-92
2022/05/13 10:45:39;;;;;;;1.27;0.80;;;19.00;99.90;;;;;;5047335;28;20205;-93
2022/05/13 10:48:27;;;;;;;1.97;1.23;;;19.10;99.90;;;;;;5048749;28;20222;-86
2022/05/13 10:51:20;;;;;;;4.80;1.60;;;19.00;99.90;;;;;;5045684;28;20252;-90
2022/05/13 10:54:16;;;;;;;1.80;1.37;;;18.50;99.90;;;;;;5045032;28;20230;-92
2022/05/13 10:57:01;;;;;;;4.07;1.23;;;18.20;99.90;;;;;;5044824;28;20275;-90
2022/05/13 10:59:55;;;;;;;1.20;1.00;;;17.50;99.90;;;;;;5045967;28;20233;-88
2022/05/13 11:02:36;;;;;;;4.03;1.57;;;18.20;99.90;;;;;;5044105;28;20230;-89
2022/05/13 11:05:12;;;;;;;1.83;1.23;;;18.70;99.90;;;;;;5045302;28;20225;-91
2022/05/13 11:08:02;;;;;;;3.63;1.30;;;17.80;99.90;;;;;;5046452;28;20214;-92
2022/05/13 11:11:01;;;;;;;3.57;1.37;;;17.50;99.90;;;;;;5046129;28;20222;-92
2022/05/13 11:13:54;;;;;;;3.03;0.77;;;17.40;99.90;;;;;;5045239;28;20232;-91
2022/05/13 11:16:40;;;;;;;1.37;1.00;;;16.90;99.90;;;;;;5046551;28;20212;-91
2022/05/13 11:19:22;;;;;;;1.77;1.50;;;17.40;99.90;;;;;;5045805;28;20634;-90
2022/05/13 11:21:51;;;;;;;3.50;1.60;;;17.70;99.90;;;;;;5044597;28;20182;-90
2022/05/13 11:27:33;;;;;;;2.17;1.00;;;18.10;99.90;;;;;;5047175;28;20210;-91
2022/05/13 11:30:08;;;;;;;2.67;0.80;;;17.70;99.90;;;;;;5045771;28;20279;-91
2022/05/13 11:32:54;;;;;;;0.87;0.77;;;17.50;99.90;;;;;;5046680;28;20217;-91
2022/05/13 11:35:54;;;;;;;2.77;1.40;;;17.70;99.90;;;;;;5046608;28;20233;-92
2022/05/13 11:38:31;;;;;;;3.20;1.80;;;18.10;99.90;;;;;;5045264;28;20304;-91
2022/05/13 11:41:13;;;;;;;4.57;1.10;;;17.70;99.90;;;;;;5041786;28;20285;-90
2022/05/13 11:43:44;;;;;;;5.17;1.10;;;17.70;99.90;;;;;;5043288;28;20221;-91
2022/05/13 11:46:19;;;;;;;1.93;1.13;;;17.50;99.90;;;;;;5041969;28;20194;-91
2022/05/13 11:48:47;;;;;;;2.40;1.20;;;17.20;99.90;;;;;;5061076;28;20663;-90
2022/05/13 11:51:26;;;;;;;3.70;1.90;;;17.60;99.90;;;;;;5044884;28;20213;-91
2022/05/13 11:54:10;;;;;;;3.17;1.17;;;17.60;99.90;;;;;;5045078;28;20233;-93
2022/05/13 11:56:38;;;;;;;2.57;1.43;;;17.20;99.90;;;;;;5043311;28;20818;-93
2022/05/13 11:59:24;;;;;;;2.80;1.60;;;17.30;99.90;;;;;;5044770;28;20567;-91
2022/05/13 12:01:51;;;;;;;3.97;1.63;;;17.30;99.90;;;;;;5027740;28;20218;-91
2022/05/13 12:04:17;;;;;;;3.13;1.43;;;17.30;99.90;;;;;;5028911;28;20233;-91
2022/05/13 12:06:49;;;;;;;0.60;0.60;;;17.30;99.90;;;;;;5046039;28;20222;-89
2022/05/13 12:09:21;;;;;;;1.87;1.50;;;16.70;99.90;;;;;;5045686;28;20264;-92
2022/05/13 12:12:13;;;;;;;4.47;0.97;;;16.80;99.90;;;;;;5044029;28;20708;-93
2022/05/13 12:14:52;;;;;;;2.63;1.60;;;17.00;99.90;;;;;;5044661;28;20313;-92
2022/05/13 12:17:48;;;;;;;0.50;0.50;;;17.50;99.90;;;;;;5043712;28;20300;-90
2022/05/13 12:20:13;;;;;;;3.60;1.20;;;17.00;99.90;;;;;;5043999;28;20218;-91
2022/05/13 12:23:14;;;;;;;6.30;1.93;;;16.70;99.90;;;;;;5042257;28;20228;-91
2022/05/13 12:25:53;;;;;;;3.00;1.37;;;16.60;99.90;;;;;;5010254;28;20217;-92
2022/05/13 12:28:19;;;;;;;4.10;0.93;;;17.10;99.90;;;;;;5044385;28;20216;-91
2022/05/13 12:30:51;;;;;;;8.13;1.70;;;17.00;99.90;;;;;;5045245;28;20190;-90
2022/05/13 12:33:20;;;;;;;2.17;1.63;;;17.30;99.90;;;;;;5044158;28;20255;-93
2022/05/13 12:39:21;;;;;;;2.70;1.53;;;16.90;99.90;;;;;;5045658;28;20328;-93
2022/05/13 12:42:09;;;;;;;5.07;1.47;;;16.80;99.90;;;;;;5024809;28;20217;-91
2022/05/13 12:44:57;;;;;;;1.07;0.67;;;16.60;99.90;;;;;;5045949;28;20318;-91
2022/05/13 12:47:26;;;;;;;2.80;0.97;;;16.70;99.90;;;;;;5046272;28;20751;-90
2022/05/13 12:50:12;;;;;;;1.47;0.83;;;16.70;99.90;;;;;;5060409;28;20217;-90
2022/05/13 12:52:41;;;;;;;1.60;0.87;;;16.70;99.90;;;;;;5043500;28;20230;-92
2022/05/13 12:55:18;;;;;;;1.47;1.13;;;16.60;99.90;;;;;;5043128;28;20267;-92
2022/05/13 12:58:05;;;;;;;6.60;1.53;;;16.60;99.90;;;;;;5044889;28;20190;-92
2022/05/13 13:00:36;;;;;;;3.87;1.03;;;16.60;99.90;;;;;;5043965;28;20226;-93
2022/05/13 13:03:07;;;;;;;0.87;0.87;;;16.80;99.90;;;;;;5044256;28;20263;-92
2022/05/13 13:05:36;;;;;;;6.73;1.40;;;16.70;99.90;;;;;;5043549;28;20730;-92
2022/05/13 13:08:10;;;;;;;3.47;1.40;;;16.60;99.90;;;;;;5044540;28;20743;-90
2022/05/13 13:10:36;;;;;;;4.27;1.53;;;16.60;99.90;;;;;;5045524;28;21011;-92
2022/05/13 13:13:09;;;;;;;5.40;1.77;;;16.80;99.90;;;;;;5045325;28;20225;-92
2022/05/13 13:15:44;;;;;;;1.43;1.10;;;17.00;99.90;;;;;;5044803;28;20662;-91
2022/05/13 13:18:11;;;;;;;1.57;1.43;;;16.90;99.90;;;;;;5045948;28;20674;-91
2022/05/13 13:20:49;;;;;;;0.73;0.73;;;16.80;99.90;;;;;;5046956;28;20249;-92
2022/05/13 13:23:16;;;;;;;2.23;1.13;;;16.40;99.90;;;;;;5064621;28;20225;-91
2022/05/13 13:25:45;;;;;;;3.27;1.00;;;16.50;99.90;;;;;;5031509;28;20217;-92
2022/05/13 13:28:22;;;;;;;2.77;1.23;;;16.40;99.90;;;;;;5048813;28;20178;-89
2022/05/13 13:30:57;;;;;;;2.60;1.00;;;16.30;99.90;;;;;;5048670;28;20178;-91
2022/05/13 13:33:29;;;;;;;4.80;1.00;;;16.20;99.90;;;;;;5048500;28;20222;-91
2022/05/13 13:36:26;;;;;;;8.80;2.50;;;16.00;99.90;;;;;;5047253;28;20214;-90